sensor_id;sensor_type;location;lat;lon;timestamp;pressure;altitude;pressure_sealevel;temperature;humidity
39435;BME280;66825;51.880;-0.518;2023-04-09T00:00:40;101559.88;;;16.43;41.06
39435;BME280;66825;51.880;-0.518;2023-04-09T00:03:06;101558.25;;;16.42;41.01
39435;BME280;66825;51.880;-0.518;2023-04-09T00:05:31;101549.25;;;16.41;40.79
39435;BME280;66825;51.880;-0.518;2023-04-09T00:07:57;101554.69;;;16.41;40.87
39435;BME280;66825;51.880;-0.518;2023-04-09T00:10:22;101553.88;;;16.41;40.84
39435;BME280;66825;51.880;-0.518;2023-04-09T00:12:48;101553.88;;;16.41;40.94
39435;BME280;66825;51.880;-0.518;2023-04-09T00:15:13;101552.22;;;16.40;40.87
39435;BME280;66825;51.880;-0.518;2023-04-09T00:17:39;101549.50;;;16.40;41.16
39435;BME280;66825;51.880;-0.518;2023-04-09T00:20:05;101541.91;;;16.37;41.10
39435;BME280;66825;51.880;-0.518;2023-04-09T00:22:32;101545.44;;;16.37;40.94
39435;BME280;66825;51.880;-0.518;2023-04-09T00:24:57;101537.00;;;16.39;41.20
39435;BME280;66825;51.880;-0.518;2023-04-09T00:27:23;101455.75;;;15.84;40.95
39435;BME280;66825;51.880;-0.518;2023-04-09T00:29:48;101534.28;;;16.39;41.25
39435;BME280;66825;51.880;-0.518;2023-04-09T00:32:13;101532.63;;;16.38;41.14
39435;BME280;66825;51.880;-0.518;2023-04-09T00:34:39;101538.06;;;16.38;41.23
39435;BME280;66825;51.880;-0.518;2023-04-09T00:37:05;101512.72;;;16.22;40.87
39435;BME280;66825;51.880;-0.518;2023-04-09T00:39:30;101527.75;;;16.34;41.01
39435;BME280;66825;51.880;-0.518;2023-04-09T00:41:57;101525.59;;;16.37;40.98
39435;BME280;66825;51.880;-0.518;2023-04-09T00:44:23;101523.66;;;16.37;40.99
39435;BME280;66825;51.880;-0.518;2023-04-09T00:46:50;101524.75;;;16.36;40.94
39435;BME280;66825;51.880;-0.518;2023-04-09T00:49:15;101524.75;;;16.36;40.93
39435;BME280;66825;51.880;-0.518;2023-04-09T00:51:41;101513.88;;;16.36;40.96
39435;BME280;66825;51.880;-0.518;2023-04-09T00:54:08;101518.50;;;16.35;40.81
39435;BME280;66825;51.880;-0.518;2023-04-09T00:56:34;101507.63;;;16.35;40.79
39435;BME280;66825;51.880;-0.518;2023-04-09T00:59:01;101500.53;;;16.34;41.06
39435;BME280;66825;51.880;-0.518;2023-04-09T01:01:26;101506.78;;;16.35;41.19
39435;BME280;66825;51.880;-0.518;2023-04-09T01:03:52;101495.09;;;16.34;41.07
39435;BME280;66825;51.880;-0.518;2023-04-09T01:06:41;101488.84;;;16.34;41.20
39435;BME280;66825;51.880;-0.518;2023-04-09T01:09:31;101497.00;;;16.34;40.92
39435;BME280;66825;51.880;-0.518;2023-04-09T01:12:28;101491.56;;;16.34;41.07
39435;BME280;66825;51.880;-0.518;2023-04-09T01:17:41;101489.94;;;16.33;41.06
39435;BME280;66825;51.880;-0.518;2023-04-09T01:20:17;101452.88;;;16.11;40.93
39435;BME280;66825;51.880;-0.518;2023-04-09T01:22:52;101481.78;;;16.33;41.15
39435;BME280;66825;51.880;-0.518;2023-04-09T01:28:14;101473.06;;;16.31;41.09
39435;BME280;66825;51.880;-0.518;2023-04-09T01:30:52;101454.53;;;16.17;41.04
39435;BME280;66825;51.880;-0.518;2023-04-09T01:33:21;101477.66;;;16.30;41.00
39435;BME280;66825;51.880;-0.518;2023-04-09T01:35:49;101477.66;;;16.30;41.02
39435;BME280;66825;51.880;-0.518;2023-04-09T01:38:18;101392.34;;;15.78;41.31
39435;BME280;66825;51.880;-0.518;2023-04-09T01:40:44;101465.19;;;16.29;41.27
39435;BME280;66825;51.880;-0.518;2023-04-09T01:43:11;101460.81;;;16.28;41.18
39435;BME280;66825;51.880;-0.518;2023-04-09T01:45:38;101464.34;;;16.29;41.19
39435;BME280;66825;51.880;-0.518;2023-04-09T01:48:05;101467.06;;;16.29;41.17
39435;BME280;66825;51.880;-0.518;2023-04-09T01:50:31;101466.25;;;16.28;41.20
39435;BME280;66825;51.880;-0.518;2023-04-09T01:52:57;101464.34;;;16.29;41.19
39435;BME280;66825;51.880;-0.518;2023-04-09T01:55:22;101461.63;;;16.29;40.99
39435;BME280;66825;51.880;-0.518;2023-04-09T01:57:48;101458.34;;;16.27;41.10
39435;BME280;66825;51.880;-0.518;2023-04-09T02:00:13;101419.13;;;16.02;40.93
39435;BME280;66825;51.880;-0.518;2023-04-09T02:02:45;101458.09;;;16.28;41.01
39435;BME280;66825;51.880;-0.518;2023-04-09T02:05:14;101439.56;;;16.15;40.96
39435;BME280;66825;51.880;-0.518;2023-04-09T02:07:44;101454.56;;;16.28;41.27
39435;BME280;66825;51.880;-0.518;2023-04-09T02:10:12;101453.19;;;16.25;41.11
39435;BME280;66825;51.880;-0.518;2023-04-09T02:12:41;101451.03;;;16.27;41.09
39435;BME280;66825;51.880;-0.518;2023-04-09T02:15:10;101450.19;;;16.27;41.11
39435;BME280;66825;51.880;-0.518;2023-04-09T02:17:36;101371.19;;;15.80;41.10
39435;BME280;66825;51.880;-0.518;2023-04-09T02:20:02;101373.84;;;15.75;41.13
39435;BME280;66825;51.880;-0.518;2023-04-09T02:22:28;101449.38;;;16.26;41.19
39435;BME280;66825;51.880;-0.518;2023-04-09T02:24:54;101452.09;;;16.26;41.27
39435;BME280;66825;51.880;-0.518;2023-04-09T02:27:19;101454.03;;;16.26;41.28
39435;BME280;66825;51.880;-0.518;2023-04-09T02:29:45;101453.19;;;16.25;41.11
39435;BME280;66825;51.880;-0.518;2023-04-09T02:32:10;101433.88;;;16.16;41.06
39435;BME280;66825;51.880;-0.518;2023-04-09T02:34:36;101442.31;;;16.25;41.24
39435;BME280;66825;51.880;-0.518;2023-04-09T02:37:01;101444.22;;;16.25;41.24
39435;BME280;66825;51.880;-0.518;2023-04-09T02:39:27;101439.59;;;16.25;41.01
39435;BME280;66825;51.880;-0.518;2023-04-09T02:41:53;101446.09;;;16.24;41.18
39435;BME280;66825;51.880;-0.518;2023-04-09T02:44:18;101449.66;;;16.25;41.13
39435;BME280;66825;51.880;-0.518;2023-04-09T02:46:45;101445.31;;;16.24;41.10
39435;BME280;66825;51.880;-0.518;2023-04-09T02:49:11;101441.50;;;16.25;41.20
39435;BME280;66825;51.880;-0.518;2023-04-09T02:51:36;101444.47;;;16.23;41.32
39435;BME280;66825;51.880;-0.518;2023-04-09T02:54:02;101426.25;;;16.18;40.98
39435;BME280;66825;51.880;-0.518;2023-04-09T02:56:28;101445.31;;;16.24;40.96
39435;BME280;66825;51.880;-0.518;2023-04-09T02:58:53;101423.78;;;16.12;40.96
39435;BME280;66825;51.880;-0.518;2023-04-09T03:01:19;101436.31;;;16.18;41.09
39435;BME280;66825;51.880;-0.518;2023-04-09T03:03:45;101421.88;;;16.12;41.08
39435;BME280;66825;51.880;-0.518;2023-04-09T03:06:11;101416.41;;;16.07;41.17
39435;BME280;66825;51.880;-0.518;2023-04-09T03:08:37;101437.44;;;16.22;41.06
39435;BME280;66825;51.880;-0.518;2023-04-09T03:11:02;101448.31;;;16.22;41.35
39435;BME280;66825;51.880;-0.518;2023-04-09T03:13:28;101435.50;;;16.17;41.09
39435;BME280;66825;51.880;-0.518;2023-04-09T03:15:53;101433.88;;;16.22;40.95
39435;BME280;66825;51.880;-0.518;2023-04-09T03:18:19;101435.22;;;16.19;41.09
39435;BME280;66825;51.880;-0.518;2023-04-09T03:20:44;101424.06;;;16.20;41.09
39435;BME280;66825;51.880;-0.518;2023-04-09T03:23:10;101427.63;;;16.21;41.15
39435;BME280;66825;51.880;-0.518;2023-04-09T03:25:35;101418.91;;;16.14;41.09
39435;BME280;66825;51.880;-0.518;2023-04-09T03:28:01;101424.91;;;16.21;40.95
39435;BME280;66825;51.880;-0.518;2023-04-09T03:30:27;101407.72;;;16.05;41.13
39435;BME280;66825;51.880;-0.518;2023-04-09T03:32:53;101422.44;;;16.19;41.08
39435;BME280;66825;51.880;-0.518;2023-04-09T03:35:19;101428.72;;;16.20;41.07
39435;BME280;66825;51.880;-0.518;2023-04-09T03:37:44;101416.47;;;16.17;41.33
39435;BME280;66825;51.880;-0.518;2023-04-09T03:40:10;101408.84;;;16.19;41.28
39435;BME280;66825;51.880;-0.518;2023-04-09T03:42:35;101412.41;;;16.20;41.25
39435;BME280;66825;51.880;-0.518;2023-04-09T03:45:03;101405.59;;;16.17;40.98
39435;BME280;66825;51.880;-0.518;2023-04-09T03:47:28;101409.94;;;16.18;41.04
39435;BME280;66825;51.880;-0.518;2023-04-09T03:49:53;101415.38;;;16.18;41.33
39435;BME280;66825;51.880;-0.518;2023-04-09T03:52:19;101410.75;;;16.19;41.09
39435;BME280;66825;51.880;-0.518;2023-04-09T03:54:44;101409.94;;;16.18;41.27
39435;BME280;66825;51.880;-0.518;2023-04-09T03:57:10;101405.59;;;16.17;41.29
39435;BME280;66825;51.880;-0.518;2023-04-09T03:59:35;101402.88;;;16.17;41.18
39435;BME280;66825;51.880;-0.518;2023-04-09T04:02:01;101388.94;;;16.03;41.22
39435;BME280;66825;51.880;-0.518;2023-04-09T04:04:26;101403.41;;;16.14;41.32
39435;BME280;66825;51.880;-0.518;2023-04-09T04:06:52;101406.66;;;16.16;41.18
39435;BME280;66825;51.880;-0.518;2023-04-09T04:09:17;101405.59;;;16.17;41.34
39435;BME280;66825;51.880;-0.518;2023-04-09T04:11:42;101405.84;;;16.16;41.30
39435;BME280;66825;51.880;-0.518;2023-04-09T04:14:08;101402.31;;;16.15;41.15
39435;BME280;66825;51.880;-0.518;2023-04-09T04:16:33;101403.97;;;16.16;41.16
39435;BME280;66825;51.880;-0.518;2023-04-09T04:18:59;101398.50;;;16.16;41.14
39435;BME280;66825;51.880;-0.518;2023-04-09T04:21:24;101396.88;;;16.15;41.24
39435;BME280;66825;51.880;-0.518;2023-04-09T04:23:51;101365.84;;;15.96;41.11
39435;BME280;66825;51.880;-0.518;2023-04-09T04:26:17;101393.06;;;16.11;41.14
39435;BME280;66825;51.880;-0.518;2023-04-09T04:28:42;101397.97;;;16.14;41.18
39435;BME280;66825;51.880;-0.518;2023-04-09T04:31:09;101402.31;;;16.15;41.35
39435;BME280;66825;51.880;-0.518;2023-04-09T04:33:35;101402.59;;;16.14;41.26
39435;BME280;66825;51.880;-0.518;2023-04-09T04:36:09;101400.69;;;16.14;41.22
39435;BME280;66825;51.880;-0.518;2023-04-09T04:38:35;101398.78;;;16.15;41.26
39435;BME280;66825;51.880;-0.518;2023-04-09T04:41:01;101395.25;;;16.14;41.41
39435;BME280;66825;51.880;-0.518;2023-04-09T04:43:26;101388.16;;;16.08;41.23
39435;BME280;66825;51.880;-0.518;2023-04-09T04:45:52;101391.44;;;16.10;41.23
39435;BME280;66825;51.880;-0.518;2023-04-09T04:48:18;101392.78;;;16.13;41.32
39435;BME280;66825;51.880;-0.518;2023-04-09T04:50:44;101387.38;;;16.13;41.28
39435;BME280;66825;51.880;-0.518;2023-04-09T04:53:09;101388.16;;;16.13;41.19
39435;BME280;66825;51.880;-0.518;2023-04-09T04:55:35;101379.22;;;16.13;41.24
39435;BME280;66825;51.880;-0.518;2023-04-09T04:58:01;101383.81;;;16.12;41.12
39435;BME280;66825;51.880;-0.518;2023-04-09T05:00:27;101383.81;;;16.12;41.39
39435;BME280;66825;51.880;-0.518;2023-04-09T05:02:52;101372.94;;;16.12;41.30
39435;BME280;66825;51.880;-0.518;2023-04-09T05:05:18;101369.41;;;16.12;41.24
39435;BME280;66825;51.880;-0.518;2023-04-09T05:07:43;101374.03;;;16.11;41.34
39435;BME280;66825;51.880;-0.518;2023-04-09T05:10:09;101379.47;;;16.11;41.20
39435;BME280;66825;51.880;-0.518;2023-04-09T05:12:34;101347.63;;;15.91;41.18
39435;BME280;66825;51.880;-0.518;2023-04-09T05:15:00;101369.41;;;16.07;41.17
39435;BME280;66825;51.880;-0.518;2023-04-09T05:17:26;101373.22;;;16.11;41.42
39435;BME280;66825;51.880;-0.518;2023-04-09T05:19:52;101377.84;;;16.10;41.19
39435;BME280;66825;51.880;-0.518;2023-04-09T05:22:18;101372.41;;;16.10;41.34
39435;BME280;66825;51.880;-0.518;2023-04-09T05:24:44;101357.41;;;16.02;41.11
39435;BME280;66825;51.880;-0.518;2023-04-09T05:27:09;101377.00;;;16.10;41.16
39435;BME280;66825;51.880;-0.518;2023-04-09T05:29:34;101362.06;;;16.07;41.13
39435;BME280;66825;51.880;-0.518;2023-04-09T05:32:00;101373.47;;;16.09;41.14
39435;BME280;66825;51.880;-0.518;2023-04-09T05:34:25;101368.84;;;16.10;41.31
39435;BME280;66825;51.880;-0.518;2023-04-09T05:36:51;101364.50;;;16.09;41.37
39435;BME280;66825;51.880;-0.518;2023-04-09T05:39:17;101353.06;;;16.01;41.26
39435;BME280;66825;51.880;-0.518;2023-04-09T05:41:42;101366.41;;;16.08;41.36
39435;BME280;66825;51.880;-0.518;2023-04-09T05:44:10;101360.97;;;16.08;41.21
39435;BME280;66825;51.880;-0.518;2023-04-09T05:46:35;101367.75;;;16.06;41.19
39435;BME280;66825;51.880;-0.518;2023-04-09T05:49:01;101359.34;;;16.07;41.17
39435;BME280;66825;51.880;-0.518;2023-04-09T05:51:26;101360.94;;;15.98;41.19
39435;BME280;66825;51.880;-0.518;2023-04-09T05:53:52;101374.00;;;16.06;41.36
39435;BME280;66825;51.880;-0.518;2023-04-09T05:56:18;101374.28;;;16.04;41.10
39435;BME280;66825;51.880;-0.518;2023-04-09T05:58:43;101367.50;;;16.07;41.34
39435;BME280;66825;51.880;-0.518;2023-04-09T06:01:09;101370.75;;;16.04;40.99
39435;BME280;66825;51.880;-0.518;2023-04-09T06:03:34;101362.06;;;16.07;41.24
39435;BME280;66825;51.880;-0.518;2023-04-09T06:06:00;101359.34;;;16.07;41.16
39435;BME280;66825;51.880;-0.518;2023-04-09T06:08:25;101356.06;;;16.05;41.05
39435;BME280;66825;51.880;-0.518;2023-04-09T06:10:51;101287.97;;;15.64;41.28
39435;BME280;66825;51.880;-0.518;2023-04-09T06:13:16;101349.53;;;16.06;41.19
39435;BME280;66825;51.880;-0.518;2023-04-09T06:15:42;101351.47;;;16.06;41.20
39435;BME280;66825;51.880;-0.518;2023-04-09T06:18:07;101255.31;;;15.43;41.25
39435;BME280;66825;51.880;-0.518;2023-04-09T06:20:32;101335.91;;;15.91;41.26
39435;BME280;66825;51.880;-0.518;2023-04-09T06:22:58;101346.28;;;16.04;41.07
39435;BME280;66825;51.880;-0.518;2023-04-09T06:25:23;101343.56;;;16.04;41.40
39435;BME280;66825;51.880;-0.518;2023-04-09T06:27:49;101349.00;;;16.04;41.36
39435;BME280;66825;51.880;-0.518;2023-04-09T06:30:14;101348.19;;;16.03;41.36
39435;BME280;66825;51.880;-0.518;2023-04-09T06:32:40;101342.75;;;16.03;41.17
39435;BME280;66825;51.880;-0.518;2023-04-09T06:35:05;101337.03;;;16.00;41.30
39435;BME280;66825;51.880;-0.518;2023-04-09T06:37:33;101339.22;;;16.03;41.22
39435;BME280;66825;51.880;-0.518;2023-04-09T06:39:58;101340.03;;;16.03;41.36
39435;BME280;66825;51.880;-0.518;2023-04-09T06:42:24;101336.50;;;16.03;41.27
39435;BME280;66825;51.880;-0.518;2023-04-09T06:44:50;101337.31;;;16.03;41.29
39435;BME280;66825;51.880;-0.518;2023-04-09T06:47:16;101333.22;;;16.01;41.45
39435;BME280;66825;51.880;-0.518;2023-04-09T06:49:41;101328.34;;;16.03;41.31
39435;BME280;66825;51.880;-0.518;2023-04-09T06:52:07;101327.28;;;16.04;41.15
39435;BME280;66825;51.880;-0.518;2023-04-09T06:54:32;101327.28;;;16.04;41.25
39435;BME280;66825;51.880;-0.518;2023-04-09T06:56:58;101319.38;;;16.02;41.19
39435;BME280;66825;51.880;-0.518;2023-04-09T06:59:23;101310.41;;;16.02;41.20
39435;BME280;66825;51.880;-0.518;2023-04-09T07:01:48;101319.13;;;16.04;41.10
39435;BME280;66825;51.880;-0.518;2023-04-09T07:04:14;101316.41;;;16.04;41.10
39435;BME280;66825;51.880;-0.518;2023-04-09T07:06:40;101321.81;;;15.99;41.31
39435;BME280;66825;51.880;-0.518;2023-04-09T07:09:05;101328.88;;;16.05;41.20
39435;BME280;66825;51.880;-0.518;2023-04-09T07:11:31;101328.88;;;16.05;41.20
39435;BME280;66825;51.880;-0.518;2023-04-09T07:13:57;101332.44;;;16.06;41.38
39435;BME280;66825;51.880;-0.518;2023-04-09T07:16:23;101336.78;;;16.07;41.36
39435;BME280;66825;51.880;-0.518;2023-04-09T07:18:48;101339.50;;;16.07;41.14
39435;BME280;66825;51.880;-0.518;2023-04-09T07:21:15;101343.31;;;16.06;41.19
39435;BME280;66825;51.880;-0.518;2023-04-09T07:23:40;101343.56;;;16.04;41.11
39435;BME280;66825;51.880;-0.518;2023-04-09T07:26:06;101335.38;;;15.99;41.10
39435;BME280;66825;51.880;-0.518;2023-04-09T07:28:31;101345.75;;;16.07;41.22
39435;BME280;66825;51.880;-0.518;2023-04-09T07:30:57;101346.56;;;16.08;41.01
39435;BME280;66825;51.880;-0.518;2023-04-09T07:33:23;101341.13;;;16.08;41.13
39435;BME280;66825;51.880;-0.518;2023-04-09T07:35:48;101249.38;;;15.51;41.24
39435;BME280;66825;51.880;-0.518;2023-04-09T07:38:14;101351.75;;;16.09;41.31
39435;BME280;66825;51.880;-0.518;2023-04-09T07:40:40;101348.19;;;16.09;41.25
39435;BME280;66825;51.880;-0.518;2023-04-09T07:43:06;101343.59;;;16.09;41.20
39435;BME280;66825;51.880;-0.518;2023-04-09T07:45:31;101338.69;;;16.11;41.08
39435;BME280;66825;51.880;-0.518;2023-04-09T07:47:57;101314.19;;;16.01;41.31
39435;BME280;66825;51.880;-0.518;2023-04-09T07:50:22;101320.19;;;16.08;41.08
39435;BME280;66825;51.880;-0.518;2023-04-09T07:52:48;101294.06;;;15.92;41.22
39435;BME280;66825;51.880;-0.518;2023-04-09T07:55:13;101328.63;;;16.12;41.35
39435;BME280;66825;51.880;-0.518;2023-04-09T07:57:39;101260.81;;;15.59;41.35
39435;BME280;66825;51.880;-0.518;2023-04-09T08:00:05;101332.16;;;16.12;41.16
39435;BME280;66825;51.880;-0.518;2023-04-09T08:02:31;101329.44;;;16.12;41.27
39435;BME280;66825;51.880;-0.518;2023-04-09T08:04:56;101329.44;;;16.12;41.16
39435;BME280;66825;51.880;-0.518;2023-04-09T08:07:22;101326.72;;;16.12;41.22
39435;BME280;66825;51.880;-0.518;2023-04-09T08:09:47;101333.78;;;16.13;41.32
39435;BME280;66825;51.880;-0.518;2023-04-09T08:12:12;101335.97;;;16.11;41.21
39435;BME280;66825;51.880;-0.518;2023-04-09T08:14:38;101329.19;;;16.14;41.38
39435;BME280;66825;51.880;-0.518;2023-04-09T08:17:03;101298.13;;;15.94;41.13
39435;BME280;66825;51.880;-0.518;2023-04-09T08:19:29;101315.59;;;16.14;41.26
39435;BME280;66825;51.880;-0.518;2023-04-09T08:21:54;101325.38;;;16.15;41.21
39435;BME280;66825;51.880;-0.518;2023-04-09T08:24:20;101323.47;;;16.15;41.22
39435;BME280;66825;51.880;-0.518;2023-04-09T08:26:46;101319.94;;;16.15;41.19
39435;BME280;66825;51.880;-0.518;2023-04-09T08:29:13;101313.97;;;16.08;41.22
39435;BME280;66825;51.880;-0.518;2023-04-09T08:31:39;101325.38;;;16.15;41.31
39435;BME280;66825;51.880;-0.518;2023-04-09T08:34:05;101285.38;;;15.95;41.25
39435;BME280;66825;51.880;-0.518;2023-04-09T08:36:30;101319.94;;;16.15;41.25
39435;BME280;66825;51.880;-0.518;2023-04-09T08:38:57;101246.72;;;15.72;41.33
39435;BME280;66825;51.880;-0.518;2023-04-09T08:41:27;101313.69;;;16.14;41.13
39435;BME280;66825;51.880;-0.518;2023-04-09T08:43:54;101316.97;;;16.16;41.14
39435;BME280;66825;51.880;-0.518;2023-04-09T08:46:20;101313.97;;;16.18;41.29
39435;BME280;66825;51.880;-0.518;2023-04-09T08:48:48;101316.69;;;16.18;41.08
39435;BME280;66825;51.880;-0.518;2023-04-09T08:51:15;101317.50;;;16.18;41.27
39435;BME280;66825;51.880;-0.518;2023-04-09T08:53:49;101287.31;;;15.99;41.13
39435;BME280;66825;51.880;-0.518;2023-04-09T08:56:18;101317.50;;;16.18;41.04
39435;BME280;66825;51.880;-0.518;2023-04-09T08:58:45;101330.81;;;16.20;41.13
39435;BME280;66825;51.880;-0.518;2023-04-09T09:01:23;101331.09;;;16.24;41.40
39435;BME280;66825;51.880;-0.518;2023-04-09T09:06:33;101342.81;;;16.29;41.09
39435;BME280;66825;51.880;-0.518;2023-04-09T09:11:29;101334.94;;;16.33;41.21
39435;BME280;66825;51.880;-0.518;2023-04-09T09:14:06;101332.75;;;16.35;40.99
39435;BME280;66825;51.880;-0.518;2023-04-09T09:16:37;101300.66;;;16.22;40.81
39435;BME280;66825;51.880;-0.518;2023-04-09T09:19:27;101297.13;;;16.26;41.20
39435;BME280;66825;51.880;-0.518;2023-04-09T09:21:57;101318.59;;;16.43;41.13
39435;BME280;66825;51.880;-0.518;2023-04-09T09:24:23;101318.34;;;16.45;40.98
39435;BME280;66825;51.880;-0.518;2023-04-09T09:26:49;101316.16;;;16.47;40.92
39435;BME280;66825;51.880;-0.518;2023-04-09T09:29:14;101302.28;;;16.48;40.91
39435;BME280;66825;51.880;-0.518;2023-04-09T09:31:50;101268.03;;;16.32;41.06
39435;BME280;66825;51.880;-0.518;2023-04-09T09:34:16;101296.31;;;16.51;41.07
39435;BME280;66825;51.880;-0.518;2023-04-09T09:36:43;101306.66;;;16.55;41.14
39435;BME280;66825;51.880;-0.518;2023-04-09T09:39:09;101309.09;;;16.56;41.21
39435;BME280;66825;51.880;-0.518;2023-04-09T09:41:36;101308.81;;;16.58;40.96
39435;BME280;66825;51.880;-0.518;2023-04-09T09:44:02;101305.00;;;16.59;41.14
39435;BME280;66825;51.880;-0.518;2023-04-09T09:46:35;101306.38;;;16.61;41.05
39435;BME280;66825;51.880;-0.518;2023-04-09T09:49:03;101281.63;;;16.52;41.06
39435;BME280;66825;51.880;-0.518;2023-04-09T09:51:30;101291.16;;;16.65;40.94
39435;BME280;66825;51.880;-0.518;2023-04-09T09:53:57;101289.78;;;16.68;41.31
39435;BME280;66825;51.880;-0.518;2023-04-09T09:56:37;101276.97;;;16.68;41.16
39435;BME280;66825;51.880;-0.518;2023-04-09T09:59:12;101279.44;;;16.70;41.30
39435;BME280;66825;51.880;-0.518;2023-04-09T10:01:39;101277.25;;;16.72;41.10
39435;BME280;66825;51.880;-0.518;2023-04-09T10:04:05;101185.38;;;16.17;40.92
39435;BME280;66825;51.880;-0.518;2023-04-09T10:06:39;101271.81;;;16.72;40.99
39435;BME280;66825;51.880;-0.518;2023-04-09T10:09:07;101228.84;;;16.54;41.00
39435;BME280;66825;51.880;-0.518;2023-04-09T10:11:35;101263.38;;;16.79;40.77
39435;BME280;66825;51.880;-0.518;2023-04-09T10:14:01;101260.38;;;16.80;41.02
39435;BME280;66825;51.880;-0.518;2023-04-09T10:16:27;101232.94;;;16.66;41.04
39435;BME280;66825;51.880;-0.518;2023-04-09T10:18:55;101254.38;;;16.83;41.20
39435;BME280;66825;51.880;-0.518;2023-04-09T10:21:40;101257.63;;;16.86;40.91
39435;BME280;66825;51.880;-0.518;2023-04-09T10:24:08;101248.38;;;16.87;41.06
39435;BME280;66825;51.880;-0.518;2023-04-09T10:26:35;101244.56;;;16.88;40.97
39435;BME280;66825;51.880;-0.518;2023-04-09T10:29:05;101245.13;;;16.90;40.95
39435;BME280;66825;51.880;-0.518;2023-04-09T10:31:53;101258.44;;;16.91;40.83
39435;BME280;66825;51.880;-0.518;2023-04-09T10:34:21;101245.13;;;16.90;41.00
39435;BME280;66825;51.880;-0.518;2023-04-09T10:36:53;101247.03;;;16.94;40.75
39435;BME280;66825;51.880;-0.518;2023-04-09T10:39:20;101240.50;;;16.95;40.79
39435;BME280;66825;51.880;-0.518;2023-04-09T10:41:47;101233.94;;;16.96;40.95
39435;BME280;66825;51.880;-0.518;2023-04-09T10:44:31;101224.44;;;16.99;40.79
39435;BME280;66825;51.880;-0.518;2023-04-09T10:46:57;101203.19;;;16.91;41.05
39435;BME280;66825;51.880;-0.518;2023-04-09T10:49:24;101228.50;;;17.02;40.87
39435;BME280;66825;51.880;-0.518;2023-04-09T10:52:01;101219.25;;;17.03;40.86
39435;BME280;66825;51.880;-0.518;2023-04-09T11:08:02;101212.41;;;17.10;40.94
39435;BME280;66825;51.880;-0.518;2023-04-09T11:10:27;101193.63;;;17.09;40.81
39435;BME280;66825;51.880;-0.518;2023-04-09T11:12:53;101193.91;;;17.12;40.91
39435;BME280;66825;51.880;-0.518;2023-04-09T11:15:19;101186.25;;;17.14;40.93
39435;BME280;66825;51.880;-0.518;2023-04-09T11:17:46;101112.91;;;16.73;41.00
39435;BME280;66825;51.880;-0.518;2023-04-09T11:20:13;101153.94;;;17.03;40.78
39435;BME280;66825;51.880;-0.518;2023-04-09T11:22:39;101166.94;;;17.11;40.78
39435;BME280;66825;51.880;-0.518;2023-04-09T11:25:05;101171.78;;;17.19;40.69
39435;BME280;66825;51.880;-0.518;2023-04-09T11:27:36;101162.53;;;17.20;41.03
39435;BME280;66825;51.880;-0.518;2023-04-09T11:30:02;101165.00;;;17.22;40.64
39435;BME280;66825;51.880;-0.518;2023-04-09T11:32:29;101089.25;;;16.74;40.61
39435;BME280;66825;51.880;-0.518;2023-04-09T11:34:55;101157.34;;;17.24;40.94
39435;BME280;66825;51.880;-0.518;2023-04-09T11:37:22;101153.53;;;17.25;40.94
39435;BME280;66825;51.880;-0.518;2023-04-09T11:39:48;101069.06;;;16.75;40.89
39435;BME280;66825;51.880;-0.518;2023-04-09T11:42:16;101148.63;;;17.27;40.88
39435;BME280;66825;51.880;-0.518;2023-04-09T11:44:43;101147.53;;;17.28;40.94
39435;BME280;66825;51.880;-0.518;2023-04-09T11:47:09;101145.63;;;17.28;40.90
39435;BME280;66825;51.880;-0.518;2023-04-09T11:49:35;101146.94;;;17.31;41.02
39435;BME280;66825;51.880;-0.518;2023-04-09T11:52:01;101134.16;;;17.32;40.72
39435;BME280;66825;51.880;-0.518;2023-04-09T11:54:32;101108.41;;;17.13;40.87
39435;BME280;66825;51.880;-0.518;2023-04-09T11:56:58;101134.69;;;17.34;40.62
39435;BME280;66825;51.880;-0.518;2023-04-09T11:59:23;101131.97;;;17.34;40.49
39435;BME280;66825;51.880;-0.518;2023-04-09T12:01:50;101112.44;;;17.21;40.56
39435;BME280;66825;51.880;-0.518;2023-04-09T12:04:24;101126.50;;;17.34;40.31
39435;BME280;66825;51.880;-0.518;2023-04-09T12:06:50;101119.16;;;17.34;40.42
39435;BME280;66825;51.880;-0.518;2023-04-09T12:09:16;101110.16;;;17.34;40.63
39435;BME280;66825;51.880;-0.518;2023-04-09T12:11:42;101112.91;;;17.34;40.26
39435;BME280;66825;51.880;-0.518;2023-04-09T12:14:12;101091.75;;;17.20;40.52
39435;BME280;66825;51.880;-0.518;2023-04-09T12:16:38;101085.19;;;17.21;40.59
39435;BME280;66825;51.880;-0.518;2023-04-09T12:19:10;101100.16;;;17.29;40.42
39435;BME280;66825;51.880;-0.518;2023-04-09T12:24:11;101086.88;;;17.17;40.51
39435;BME280;66825;51.880;-0.518;2023-04-09T12:26:37;101101.25;;;17.23;40.43
39435;BME280;66825;51.880;-0.518;2023-04-09T12:29:02;101096.94;;;17.22;40.79
39435;BME280;66825;51.880;-0.518;2023-04-09T12:31:28;101100.19;;;17.19;40.47
39435;BME280;66825;51.880;-0.518;2023-04-09T12:33:53;101094.75;;;17.19;40.86
39435;BME280;66825;51.880;-0.518;2023-04-09T12:36:19;101091.50;;;17.17;40.78
39435;BME280;66825;51.880;-0.518;2023-04-09T12:38:44;101085.50;;;17.14;40.71
39435;BME280;66825;51.880;-0.518;2023-04-09T12:41:10;101061.91;;;16.99;40.86
39435;BME280;66825;51.880;-0.518;2023-04-09T12:43:37;101076.81;;;17.12;40.94
39435;BME280;66825;51.880;-0.518;2023-04-09T12:46:03;101083.38;;;17.11;40.70
39435;BME280;66825;51.880;-0.518;2023-04-09T12:48:28;101081.72;;;17.10;40.78
39435;BME280;66825;51.880;-0.518;2023-04-09T12:50:54;101075.22;;;17.06;40.64
39435;BME280;66825;51.880;-0.518;2023-04-09T12:53:20;101075.75;;;17.08;40.75
39435;BME280;66825;51.880;-0.518;2023-04-09T12:55:45;101073.59;;;17.05;41.06
39435;BME280;66825;51.880;-0.518;2023-04-09T12:58:11;101064.09;;;16.97;40.84
39435;BME280;66825;51.880;-0.518;2023-04-09T13:00:36;101072.78;;;17.05;41.01
39435;BME280;66825;51.880;-0.518;2023-04-09T13:03:02;101066.53;;;17.04;40.77
39435;BME280;66825;51.880;-0.518;2023-04-09T13:05:27;101064.09;;;17.03;40.87